createdAt,value
2023-03-28T00:00:46.062Z,20.60
2023-03-28T00:03:25.358Z,20.00
2023-03-28T00:06:03.445Z,23.60
2023-03-28T00:08:39.628Z,24.90
2023-03-28T00:11:20.277Z,20.50
2023-03-28T00:13:58.169Z,19.60
2023-03-28T00:16:33.895Z,20.00
2023-03-28T00:19:08.508Z,22.70
2023-03-28T00:21:42.946Z,21.10
2023-03-28T00:24:17.525Z,21.80
2023-03-28T00:26:54.836Z,20.30
2023-03-28T00:29:33.856Z,21.40
2023-03-28T00:32:07.962Z,21.50
2023-03-28T00:34:41.830Z,24.90
2023-03-28T00:37:18.561Z,23.20
2023-03-28T00:39:51.774Z,22.70
2023-03-28T00:42:27.611Z,24.10
2023-03-28T00:44:59.943Z,26.80
2023-03-28T00:47:42.027Z,26.30
2023-03-28T00:50:20.242Z,26.30
2023-03-28T00:52:56.749Z,27.60
2023-03-28T00:55:33.055Z,28.10
2023-03-28T00:58:08.570Z,29.30
2023-03-28T01:00:41.608Z,26.20
2023-03-28T01:03:13.845Z,26.00
2023-03-28T01:05:48.499Z,24.10
2023-03-28T01:08:24.524Z,24.50
2023-03-28T01:10:59.084Z,25.70
2023-03-28T01:13:36.116Z,24.60
2023-03-28T01:16:12.986Z,26.00
2023-03-28T01:18:51.556Z,28.50
2023-03-28T01:21:55.000Z,29.30
2023-03-28T01:25:10.973Z,28.60
2023-03-28T01:27:47.392Z,25.80
2023-03-28T01:30:38.930Z,23.30
2023-03-28T01:33:42.010Z,23.70
2023-03-28T01:36:59.495Z,23.10
2023-03-28T01:39:41.123Z,20.90
2023-03-28T01:42:19.702Z,22.20
2023-03-28T01:44:56.477Z,20.30
2023-03-28T01:47:32.924Z,20.50
2023-03-28T01:50:12.753Z,20.20
2023-03-28T01:52:51.344Z,19.90
2023-03-28T01:55:27.224Z,21.10
2023-03-28T01:58:06.445Z,20.70
2023-03-28T02:00:46.749Z,21.10
2023-03-28T02:03:25.222Z,21.30
2023-03-28T02:05:59.739Z,21.40
2023-03-28T02:08:36.747Z,20.60
2023-03-28T02:11:11.663Z,20.80
2023-03-28T02:13:48.152Z,20.10
2023-03-28T02:16:23.360Z,17.70
2023-03-28T02:18:58.955Z,19.00
2023-03-28T02:21:37.693Z,17.10
2023-03-28T02:24:12.535Z,17.90
2023-03-28T02:26:47.619Z,18.20
2023-03-28T02:29:21.538Z,17.50
2023-03-28T02:31:53.407Z,16.60
2023-03-28T02:34:27.474Z,17.70
2023-03-28T02:37:08.205Z,17.20
2023-03-28T02:39:52.602Z,16.20
2023-03-28T02:42:51.386Z,18.40
2023-03-28T02:45:39.412Z,17.20
2023-03-28T02:48:18.130Z,16.70
2023-03-28T02:50:56.090Z,18.40
2023-03-28T02:53:34.145Z,19.90
2023-03-28T02:56:11.155Z,21.80
2023-03-28T02:58:49.834Z,22.50
2023-03-28T03:01:30.676Z,18.30
2023-03-28T03:04:05.990Z,21.00
2023-03-28T03:06:38.302Z,18.20
2023-03-28T03:09:10.298Z,18.00
2023-03-28T03:11:42.092Z,18.10
2023-03-28T03:14:15.216Z,17.50
2023-03-28T03:16:49.297Z,19.40
2023-03-28T03:19:23.211Z,17.30
2023-03-28T03:21:58.837Z,17.20
2023-03-28T03:24:32.331Z,14.80
2023-03-28T03:27:06.644Z,15.30
2023-03-28T03:29:39.787Z,13.70
2023-03-28T03:32:12.872Z,14.00
2023-03-28T03:34:45.649Z,12.70
2023-03-28T03:37:18.997Z,13.30
2023-03-28T03:39:51.833Z,14.10
2023-03-28T03:42:26.207Z,15.60
2023-03-28T03:44:59.639Z,15.30
2023-03-28T03:47:33.320Z,14.60
2023-03-28T03:50:05.918Z,14.60
2023-03-28T03:52:37.988Z,17.90
2023-03-28T03:55:11.801Z,17.20
2023-03-28T03:57:43.593Z,17.20
2023-03-28T04:00:18.921Z,17.90
2023-03-28T04:02:53.775Z,19.90
2023-03-28T04:05:27.185Z,19.80
2023-03-28T04:08:02.682Z,18.00
2023-03-28T04:10:34.502Z,19.80
2023-03-28T04:13:07.837Z,22.50
2023-03-28T04:15:41.920Z,22.30
2023-03-28T04:18:15.640Z,27.50
2023-03-28T04:20:49.600Z,23.90
2023-03-28T04:23:26.832Z,23.50
2023-03-28T04:26:03.464Z,22.10
2023-03-28T04:28:35.416Z,18.50
2023-03-28T04:31:13.009Z,15.90
2023-03-28T04:33:47.539Z,16.60
2023-03-28T04:36:25.603Z,14.60
2023-03-28T04:39:04.293Z,14.70
2023-03-28T04:41:37.784Z,12.70
2023-03-28T04:44:13.329Z,11.70
2023-03-28T04:46:46.587Z,10.20
2023-03-28T04:49:19.761Z,12.30
2023-03-28T04:51:55.557Z,14.80
2023-03-28T04:54:28.240Z,17.30
2023-03-28T04:57:04.984Z,17.50
2023-03-28T04:59:40.491Z,15.60
2023-03-28T05:02:13.775Z,15.60
2023-03-28T05:04:46.391Z,21.40
2023-03-28T05:07:22.553Z,19.60
2023-03-28T05:09:58.890Z,17.60
2023-03-28T05:12:37.073Z,18.20
2023-03-28T05:15:21.434Z,17.60
2023-03-28T05:17:58.760Z,16.20
2023-03-28T05:20:39.244Z,16.30
2023-03-28T05:23:17.287Z,14.40
2023-03-28T05:26:04.963Z,16.40
2023-03-28T05:28:37.158Z,16.50
2023-03-28T05:31:12.930Z,20.20
2023-03-28T05:33:47.694Z,16.50
2023-03-28T05:36:23.601Z,20.10
2023-03-28T05:38:58.061Z,12.40
2023-03-28T05:41:33.662Z,10.80
2023-03-28T05:44:05.607Z,13.00
2023-03-28T05:46:41.310Z,10.90
2023-03-28T05:49:13.358Z,12.20
2023-03-28T05:51:48.943Z,14.20
2023-03-28T05:54:25.965Z,13.10
2023-03-28T05:56:59.582Z,16.10
2023-03-28T05:59:32.590Z,12.70
2023-03-28T06:02:09.483Z,11.10
2023-03-28T06:04:42.698Z,11.30
2023-03-28T06:07:15.051Z,11.90
2023-03-28T06:09:49.558Z,8.40
2023-03-28T06:12:23.470Z,8.20
2023-03-28T06:14:57.238Z,10.10
2023-03-28T06:17:31.362Z,9.80
2023-03-28T06:20:07.354Z,7.00
2023-03-28T06:22:39.419Z,6.10
2023-03-28T06:25:13.525Z,6.80
2023-03-28T06:27:46.873Z,7.70
2023-03-28T06:30:21.033Z,7.20
2023-03-28T06:32:53.697Z,5.90
2023-03-28T06:35:26.267Z,6.40
2023-03-28T06:38:00.888Z,6.00
2023-03-28T06:40:36.888Z,5.00
2023-03-28T06:43:10.152Z,5.30
2023-03-28T06:45:43.195Z,5.00
2023-03-28T06:48:16.647Z,7.60
2023-03-28T06:50:51.569Z,7.00
2023-03-28T06:53:23.801Z,8.50
2023-03-28T06:55:56.597Z,6.60
2023-03-28T06:58:29.213Z,8.30
2023-03-28T07:01:05.802Z,9.70
2023-03-28T07:03:37.745Z,9.90
2023-03-28T07:06:11.536Z,9.60
2023-03-28T07:08:45.682Z,7.40
2023-03-28T07:11:18.992Z,6.90
2023-03-28T07:13:51.057Z,11.10
2023-03-28T07:16:24.810Z,7.00
2023-03-28T07:18:58.829Z,9.90
2023-03-28T07:21:32.161Z,9.40
2023-03-28T07:24:04.137Z,10.00
2023-03-28T07:26:37.704Z,5.90
2023-03-28T07:29:10.013Z,6.40
2023-03-28T07:31:42.718Z,8.50
2023-03-28T07:34:18.741Z,16.30
2023-03-28T07:36:54.574Z,13.60
2023-03-28T07:39:36.091Z,5.80
2023-03-28T07:42:20.322Z,6.70
2023-03-28T07:44:52.241Z,6.00
2023-03-28T07:47:24.382Z,9.10
2023-03-28T07:49:57.530Z,7.70
2023-03-28T07:52:29.421Z,8.80
2023-03-28T07:55:04.616Z,6.50
2023-03-28T07:57:38.745Z,4.70
2023-03-28T08:00:14.100Z,10.30
2023-03-28T08:02:47.981Z,8.90
2023-03-28T08:05:24.230Z,9.50
2023-03-28T08:07:57.263Z,10.20
2023-03-28T08:10:29.200Z,7.40
2023-03-28T08:13:02.690Z,9.20
2023-03-28T08:15:37.350Z,6.80
2023-03-28T08:18:12.553Z,13.90
2023-03-28T08:20:45.296Z,14.50
2023-03-28T08:23:18.634Z,6.50
2023-03-28T08:25:52.915Z,7.00
2023-03-28T08:28:24.811Z,5.10
2023-03-28T08:30:57.139Z,5.20
2023-03-28T08:33:32.906Z,6.40
2023-03-28T08:36:05.283Z,10.20
2023-03-28T08:38:39.553Z,14.30
2023-03-28T08:41:20.734Z,9.10
2023-03-28T08:44:03.920Z,9.00
2023-03-28T08:46:37.075Z,6.50
2023-03-28T08:49:15.249Z,11.80
2023-03-28T08:51:51.018Z,8.50
2023-03-28T08:54:28.220Z,14.10
2023-03-28T08:57:03.006Z,4.80
2023-03-28T08:59:47.564Z,3.80
2023-03-28T09:02:23.858Z,8.70
2023-03-28T09:05:11.904Z,5.60
2023-03-28T09:07:56.432Z,8.00
2023-03-28T09:10:31.971Z,14.00
2023-03-28T09:13:13.193Z,8.20
2023-03-28T09:15:55.205Z,12.00
2023-03-28T09:19:00.730Z,38.80
2023-03-28T09:21:41.140Z,8.70
2023-03-28T09:24:22.004Z,24.00
2023-03-28T09:27:02.479Z,8.40
2023-03-28T09:29:38.677Z,8.10
2023-03-28T09:32:17.415Z,7.90
2023-03-28T09:34:52.841Z,10.20
2023-03-28T09:37:41.096Z,29.40
2023-03-28T09:40:20.944Z,12.80
2023-03-28T09:43:09.197Z,15.30
2023-03-28T09:45:53.773Z,10.30
2023-03-28T09:48:30.609Z,9.20
2023-03-28T09:51:06.447Z,7.40
2023-03-28T09:53:42.505Z,8.00
2023-03-28T09:56:22.816Z,10.60
2023-03-28T09:58:57.568Z,11.90
2023-03-28T10:01:37.714Z,9.80
2023-03-28T10:04:15.869Z,10.30
2023-03-28T10:06:50.318Z,4.50
2023-03-28T10:09:26.252Z,8.00
2023-03-28T10:12:03.619Z,7.70
2023-03-28T10:14:37.925Z,8.00
2023-03-28T10:17:16.198Z,5.90
2023-03-28T10:19:52.313Z,4.10
2023-03-28T10:22:27.939Z,6.40
2023-03-28T10:25:00.610Z,5.60
2023-03-28T10:27:35.261Z,5.10
2023-03-28T10:30:22.567Z,4.30
2023-03-28T10:33:25.401Z,7.50
2023-03-28T10:36:03.998Z,5.30
2023-03-28T10:38:39.026Z,5.00
2023-03-28T10:41:21.487Z,8.00
2023-03-28T10:43:58.067Z,5.70
2023-03-28T10:46:36.169Z,7.10
2023-03-28T10:49:15.936Z,5.20
2023-03-28T10:51:52.414Z,7.20
2023-03-28T10:54:38.360Z,5.90
2023-03-28T10:57:15.512Z,5.30
2023-03-28T10:59:52.870Z,4.90
2023-03-28T11:02:51.052Z,5.10
2023-03-28T11:05:39.468Z,5.10
2023-03-28T11:08:31.500Z,6.00
2023-03-28T11:11:08.496Z,4.20
2023-03-28T11:13:46.851Z,5.30
2023-03-28T11:16:25.504Z,4.20
2023-03-28T11:19:05.785Z,6.10
2023-03-28T11:21:44.996Z,6.40
2023-03-28T11:24:26.129Z,4.90
2023-03-28T11:27:15.666Z,6.20
2023-03-28T11:29:51.909Z,5.60
2023-03-28T11:32:27.752Z,5.10
2023-03-28T11:35:06.575Z,8.70
2023-03-28T11:37:41.542Z,8.00
2023-03-28T11:40:25.274Z,8.50
2023-03-28T11:43:00.271Z,9.90
2023-03-28T11:45:49.523Z,3.40
2023-03-28T11:48:29.785Z,7.40
2023-03-28T11:51:05.806Z,4.80
2023-03-28T11:53:40.954Z,4.80
2023-03-28T11:56:17.164Z,9.10
2023-03-28T11:58:51.542Z,3.80
2023-03-28T12:01:28.356Z,6.80
2023-03-28T12:04:06.467Z,4.20
2023-03-28T12:06:55.842Z,8.20
2023-03-28T12:09:42.793Z,6.00
2023-03-28T12:12:17.683Z,5.90
2023-03-28T12:14:59.194Z,6.10
2023-03-28T12:17:35.652Z,5.70
2023-03-28T12:20:14.397Z,6.90
2023-03-28T12:22:54.142Z,7.90
2023-03-28T12:25:31.202Z,6.20
2023-03-28T12:28:10.269Z,5.50
2023-03-28T12:30:48.987Z,5.90
2023-03-28T12:33:28.077Z,5.80
2023-03-28T12:36:03.574Z,6.90
2023-03-28T12:38:40.982Z,9.70
2023-03-28T12:41:16.004Z,2.90
2023-03-28T12:43:53.491Z,4.40
2023-03-28T12:46:28.958Z,4.20
2023-03-28T12:49:11.595Z,5.30
2023-03-28T12:51:48.190Z,6.20
2023-03-28T12:54:31.080Z,5.50
2023-03-28T12:57:05.476Z,7.60
2023-03-28T12:59:58.120Z,6.30
2023-03-28T13:02:36.471Z,8.60
2023-03-28T13:05:18.835Z,7.60
2023-03-28T13:08:04.282Z,8.80
2023-03-28T13:10:42.821Z,10.20
2023-03-28T13:13:22.868Z,11.50
2023-03-28T13:16:08.066Z,7.90
2023-03-28T13:18:49.160Z,6.30
2023-03-28T13:21:45.105Z,6.00
2023-03-28T13:24:32.299Z,6.90
2023-03-28T13:27:08.001Z,6.80
2023-03-28T13:29:51.381Z,9.60
2023-03-28T13:32:25.873Z,5.30
2023-03-28T13:35:00.269Z,5.30
2023-03-28T13:37:52.729Z,3.00
2023-03-28T13:40:51.560Z,5.20
2023-03-28T13:43:29.884Z,6.20
2023-03-28T13:46:05.321Z,6.50
2023-03-28T13:48:43.482Z,7.60
2023-03-28T13:51:21.595Z,4.60
2023-03-28T13:53:55.060Z,5.10
2023-03-28T13:56:29.298Z,4.60
2023-03-28T13:59:03.489Z,3.80
2023-03-28T14:01:47.068Z,4.40
2023-03-28T14:04:24.844Z,7.10
2023-03-28T14:06:59.860Z,5.50
2023-03-28T14:09:36.758Z,7.40
2023-03-28T14:12:14.091Z,6.80
2023-03-28T14:14:49.436Z,7.60
2023-03-28T14:17:26.062Z,5.10
2023-03-28T14:20:03.142Z,9.10
2023-03-28T14:22:59.096Z,5.80
2023-03-28T14:25:33.649Z,12.10
2023-03-28T14:28:10.719Z,8.80
2023-03-28T14:30:45.027Z,9.60
2023-03-28T14:33:21.924Z,11.80
2023-03-28T14:36:01.798Z,7.30
2023-03-28T14:38:38.621Z,8.00
2023-03-28T14:41:19.263Z,9.00
2023-03-28T14:43:56.045Z,9.60
2023-03-28T14:46:30.170Z,10.00
2023-03-28T14:49:07.314Z,10.20
2023-03-28T14:51:46.696Z,8.60
2023-03-28T14:54:27.454Z,9.20
2023-03-28T14:57:05.000Z,12.10
2023-03-28T14:59:41.357Z,16.00
2023-03-28T15:02:22.435Z,9.30
2023-03-28T15:04:57.520Z,11.60
2023-03-28T15:07:35.423Z,11.30
2023-03-28T15:10:12.016Z,9.10
2023-03-28T15:12:49.323Z,10.10
2023-03-28T15:15:24.035Z,12.70
2023-03-28T15:18:03.386Z,11.60
2023-03-28T15:20:39.102Z,16.50
2023-03-28T15:23:18.900Z,16.30
2023-03-28T15:25:54.978Z,15.30
2023-03-28T15:28:31.756Z,19.10
2023-03-28T15:31:08.364Z,21.40
2023-03-28T15:33:41.241Z,27.10
2023-03-28T15:36:19.066Z,42.60
2023-03-28T15:39:04.241Z,27.80
2023-03-28T15:41:48.424Z,18.40
2023-03-28T15:44:29.252Z,17.50
2023-03-28T15:47:04.577Z,13.90
2023-03-28T15:49:39.429Z,16.50
2023-03-28T15:52:19.144Z,18.90
2023-03-28T15:54:53.228Z,15.00
2023-03-28T15:57:30.226Z,21.80
2023-03-28T16:00:06.936Z,29.30
2023-03-28T16:02:42.440Z,23.30
2023-03-28T16:05:35.652Z,30.50
2023-03-28T16:08:23.434Z,38.80
2023-03-28T16:10:57.792Z,26.30
2023-03-28T16:13:33.647Z,17.10
2023-03-28T16:16:09.094Z,18.10
2023-03-28T16:18:42.990Z,16.60
2023-03-28T16:21:16.523Z,19.10
2023-03-28T16:23:50.416Z,19.80
2023-03-28T16:26:25.121Z,18.90
2023-03-28T16:29:01.071Z,16.60
2023-03-28T16:31:36.653Z,36.20
2023-03-28T16:34:10.360Z,25.90
2023-03-28T16:36:43.337Z,41.20
2023-03-28T16:39:16.196Z,56.70
2023-03-28T16:41:49.937Z,80.40
2023-03-28T16:44:23.275Z,51.90
2023-03-28T16:46:58.023Z,62.20
2023-03-28T16:49:32.264Z,35.80
2023-03-28T16:52:05.333Z,39.30
2023-03-28T16:54:38.823Z,25.20
2023-03-28T16:57:12.842Z,29.80
2023-03-28T16:59:48.499Z,18.60
2023-03-28T17:02:21.211Z,26.00
2023-03-28T17:04:55.888Z,20.90
2023-03-28T17:07:30.411Z,23.50
2023-03-28T17:10:05.474Z,16.80
2023-03-28T17:12:43.346Z,13.00
2023-03-28T17:15:17.919Z,14.20
2023-03-28T17:17:54.880Z,13.90
2023-03-28T17:20:28.082Z,13.30
2023-03-28T17:23:02.595Z,15.70
2023-03-28T17:25:48.122Z,9.30
2023-03-28T17:28:27.980Z,10.10
2023-03-28T17:31:08.066Z,10.70
2023-03-28T17:33:43.507Z,12.70
2023-03-28T17:36:22.421Z,10.00
2023-03-28T17:39:02.099Z,15.30
2023-03-28T17:41:42.003Z,13.80
2023-03-28T17:44:15.725Z,16.20
2023-03-28T17:46:54.540Z,11.30
2023-03-28T17:49:28.281Z,13.20
2023-03-28T17:52:03.365Z,15.10
2023-03-28T17:54:37.296Z,17.40
2023-03-28T17:57:11.062Z,28.10
2023-03-28T17:59:46.345Z,17.70
2023-03-28T18:02:20.397Z,17.60
2023-03-28T18:04:53.831Z,10.50
2023-03-28T18:07:27.188Z,15.90
2023-03-28T18:10:01.533Z,18.90
2023-03-28T18:12:35.566Z,28.00
2023-03-28T18:15:10.873Z,41.80
2023-03-28T18:17:44.669Z,31.10
2023-03-28T18:20:17.584Z,34.90
2023-03-28T18:22:51.492Z,36.40
2023-03-28T18:25:24.013Z,25.40
2023-03-28T18:27:57.823Z,31.70
2023-03-28T18:30:31.901Z,31.30
2023-03-28T18:33:06.355Z,36.90
2023-03-28T18:35:39.538Z,36.10
2023-03-28T18:38:18.351Z,29.20
2023-03-28T18:40:55.184Z,32.10
2023-03-28T18:43:30.299Z,24.60
2023-03-28T18:46:09.404Z,28.70
2023-03-28T18:48:42.196Z,27.50
2023-03-28T18:51:16.927Z,28.90
2023-03-28T18:53:51.050Z,30.20
2023-03-28T18:56:26.027Z,27.30
2023-03-28T18:59:00.056Z,27.50
2023-03-28T19:01:35.971Z,23.90
2023-03-28T19:04:09.300Z,23.90
2023-03-28T19:06:42.439Z,24.20
2023-03-28T19:09:18.342Z,22.50
2023-03-28T19:11:55.192Z,26.40
2023-03-28T19:14:29.802Z,35.60
2023-03-28T19:17:02.892Z,27.20
2023-03-28T19:19:37.603Z,29.60
2023-03-28T19:22:11.853Z,25.20
2023-03-28T19:24:46.427Z,28.30
2023-03-28T19:27:21.352Z,30.10
2023-03-28T19:29:54.990Z,30.00
2023-03-28T19:32:28.137Z,27.10
2023-03-28T19:35:08.655Z,26.10
2023-03-28T19:37:42.028Z,30.90
2023-03-28T19:40:17.564Z,28.60
2023-03-28T19:42:49.805Z,25.60
2023-03-28T19:45:23.124Z,20.40
2023-03-28T19:48:00.217Z,18.60
2023-03-28T19:50:38.651Z,18.40
2023-03-28T19:53:13.531Z,20.20
2023-03-28T19:55:47.510Z,29.50
2023-03-28T19:58:19.830Z,25.10
2023-03-28T20:00:54.280Z,30.40
2023-03-28T20:03:28.343Z,22.30
2023-03-28T20:06:07.803Z,36.30
2023-03-28T20:08:42.863Z,32.30
2023-03-28T20:11:16.950Z,27.90
2023-03-28T20:13:51.896Z,38.00
2023-03-28T20:16:26.236Z,30.80
2023-03-28T20:19:01.081Z,25.80
2023-03-28T20:21:35.262Z,23.40
2023-03-28T20:24:10.981Z,26.10
2023-03-28T20:26:43.474Z,26.90
2023-03-28T20:29:15.313Z,21.20
2023-03-28T20:31:48.685Z,19.90
2023-03-28T20:34:26.358Z,22.80
2023-03-28T20:37:01.304Z,22.90
2023-03-28T20:39:37.061Z,30.60
2023-03-28T20:42:12.918Z,45.30
2023-03-28T20:44:45.050Z,18.40
2023-03-28T20:47:25.419Z,17.20
2023-03-28T20:50:07.147Z,18.30
2023-03-28T20:52:42.618Z,18.40
2023-03-28T20:55:19.814Z,21.00
2023-03-28T20:57:58.660Z,21.70
2023-03-28T21:00:37.772Z,23.10
2023-03-28T21:03:12.310Z,24.10
2023-03-28T21:05:46.848Z,26.20
2023-03-28T21:08:21.541Z,24.40
2023-03-28T21:10:58.669Z,28.00
2023-03-28T21:13:34.042Z,28.80
2023-03-28T21:16:08.696Z,26.60
2023-03-28T21:18:42.725Z,27.80
2023-03-28T21:21:16.939Z,26.00
2023-03-28T21:23:49.668Z,25.20
2023-03-28T21:26:23.331Z,24.90
2023-03-28T21:28:56.955Z,23.70
2023-03-28T21:31:30.913Z,28.30
2023-03-28T21:34:05.179Z,30.10
2023-03-28T21:36:37.234Z,46.10
2023-03-28T21:39:11.040Z,36.50
2023-03-28T21:41:43.731Z,34.20
2023-03-28T21:44:19.007Z,34.50
2023-03-28T21:46:55.356Z,32.50
2023-03-28T21:49:30.629Z,40.40
2023-03-28T21:52:03.197Z,43.30
2023-03-28T21:54:38.855Z,45.30
2023-03-28T21:57:13.751Z,41.90
2023-03-28T21:59:47.949Z,44.90
2023-03-28T22:02:25.134Z,41.00
2023-03-28T22:05:01.240Z,38.00
2023-03-28T22:07:34.200Z,36.90
2023-03-28T22:10:08.383Z,36.50
2023-03-28T22:12:44.897Z,35.20
2023-03-28T22:15:19.691Z,32.90
2023-03-28T22:17:58.518Z,35.10
2023-03-28T22:20:31.761Z,39.60
2023-03-28T22:23:04.469Z,36.50
2023-03-28T22:25:39.940Z,37.50
2023-03-28T22:28:14.045Z,38.00
2023-03-28T22:33:43.319Z,34.60
2023-03-28T22:36:16.450Z,30.00
2023-03-28T22:38:49.876Z,31.70
2023-03-28T22:41:23.888Z,35.80
2023-03-28T22:43:58.683Z,41.10
2023-03-28T22:46:32.222Z,39.10
2023-03-28T22:49:05.512Z,36.30
2023-03-28T22:51:46.351Z,35.60
2023-03-28T22:54:22.909Z,32.60
2023-03-28T22:57:00.533Z,32.50
2023-03-28T22:59:33.884Z,28.60
2023-03-28T23:02:08.027Z,26.20
2023-03-28T23:04:40.355Z,26.80
2023-03-28T23:07:13.619Z,27.50
2023-03-28T23:09:46.389Z,31.80
2023-03-28T23:12:18.967Z,36.80
2023-03-28T23:14:53.698Z,38.20
2023-03-28T23:17:31.438Z,39.00
2023-03-28T23:20:07.245Z,41.40
2023-03-28T23:22:41.242Z,37.10
2023-03-28T23:25:14.910Z,41.00
2023-03-28T23:27:48.210Z,39.90
2023-03-28T23:30:21.229Z,40.10
2023-03-28T23:32:54.147Z,39.90
2023-03-28T23:35:27.335Z,34.00
2023-03-28T23:38:00.105Z,34.70
2023-03-28T23:40:34.444Z,33.10
2023-03-28T23:43:09.894Z,35.00
2023-03-28T23:45:43.845Z,40.50
2023-03-28T23:48:16.873Z,45.10
2023-03-28T23:50:48.712Z,47.80
2023-03-28T23:53:22.836Z,42.20
2023-03-28T23:55:55.103Z,42.30
2023-03-28T23:58:27.004Z,39.80
